Time;durP1;ratioP1;P1;durP2;ratioP2;P2;SDS_P1;SDS_P2;PMS_P1;PMS_P2;Temp;Humidity;BMP_temperature;BMP_pressure;BME280_temperature;BME280_humidity;BME280_pressure;Samples;Min_cycle;Max_cycle;Signal;HPM_P1;HPM_P2
2022/12/09 00:00:06;;;;;;;15.50;9.82;;;;;;;;;;4935894;28;20089;-76
2022/12/09 00:02:34;;;;;;;15.98;9.77;;;;;;;;;;4969005;28;20114;-75
2022/12/09 00:05:02;;;;;;;19.08;11.25;;;;;;;;;;4967384;28;20047;-76
2022/12/09 00:07:29;;;;;;;15.88;10.20;;;;;;;;;;4947834;28;20113;-76
2022/12/09 00:09:57;;;;;;;11.95;9.68;;;;;;;;;;4947419;28;20082;-75
2022/12/09 00:12:24;;;;;;;16.00;10.27;;;;;;;;;;4948982;28;20460;-76
2022/12/09 00:14:52;;;;;;;11.68;9.07;;;;;;;;;;4953179;28;20125;-76
2022/12/09 00:17:19;;;;;;;15.30;10.45;;;;;;;;;;4973526;28;20518;-76
2022/12/09 00:19:46;;;;;;;17.40;10.68;;;;;;;;;;4975550;28;20049;-77
2022/12/09 00:22:14;;;;;;;15.43;10.30;;;;;;;;;;4951862;28;20038;-77
2022/12/09 00:24:41;;;;;;;19.38;11.88;;;;;;;;;;4960555;28;20039;-75
2022/12/09 00:27:09;;;;;;;17.92;11.40;;;;;;;;;;4968185;28;20434;-76
2022/12/09 00:29:36;;;;;;;15.27;9.93;;;;;;;;;;4970981;28;20403;-77
2022/12/09 00:32:04;;;;;;;13.43;9.68;;;;;;;;;;4949786;28;20519;-76
2022/12/09 00:34:31;;;;;;;13.82;9.90;;;;;;;;;;4971877;28;20051;-76
2022/12/09 00:36:59;;;;;;;12.65;9.38;;;;;;;;;;4975629;28;20058;-76
2022/12/09 00:39:26;;;;;;;14.98;9.95;;;;;;;;;;4979073;28;20075;-77
2022/12/09 00:41:54;;;;;;;11.27;8.30;;;;;;;;;;4974283;28;20042;-77
2022/12/09 00:44:21;;;;;;;13.88;9.77;;;;;;;;;;4973134;28;20645;-77
2022/12/09 00:46:49;;;;;;;16.35;10.82;;;;;;;;;;4953233;28;20495;-76
2022/12/09 00:49:16;;;;;;;16.15;11.00;;;;;;;;;;4969769;28;20047;-76
2022/12/09 00:51:46;;;;;;;19.20;11.15;;;;;;;;;;4948251;28;20429;-77
2022/12/09 00:54:13;;;;;;;14.00;9.82;;;;;;;;;;4950299;28;20224;-77
2022/12/09 00:56:41;;;;;;;14.93;10.43;;;;;;;;;;4970770;28;20056;-78
2022/12/09 00:59:08;;;;;;;15.43;10.68;;;;;;;;;;4954765;28;20140;-76
2022/12/09 01:01:36;;;;;;;16.08;10.98;;;;;;;;;;4974091;28;20049;-76
2022/12/09 01:04:07;;;;;;;13.85;9.65;;;;;;;;;;4973779;28;20070;-76
2022/12/09 01:06:35;;;;;;;15.48;10.57;;;;;;;;;;4956653;28;20078;-76
2022/12/09 01:09:03;;;;;;;14.18;10.25;;;;;;;;;;4946851;28;20039;-76
2022/12/09 01:11:31;;;;;;;17.42;9.95;;;;;;;;;;4939578;28;20054;-77
2022/12/09 01:14:00;;;;;;;16.65;10.70;;;;;;;;;;4955181;28;20510;-76
2022/12/09 01:16:29;;;;;;;14.25;10.52;;;;;;;;;;4950606;28;20039;-78
2022/12/09 01:19:00;;;;;;;12.07;8.27;;;;;;;;;;4973059;28;20046;-77
2022/12/09 01:21:29;;;;;;;13.82;9.57;;;;;;;;;;4956105;28;20410;-77
2022/12/09 01:23:57;;;;;;;14.32;9.52;;;;;;;;;;4940281;28;20119;-76
2022/12/09 01:26:25;;;;;;;12.45;9.27;;;;;;;;;;4950601;28;20434;-77
2022/12/09 01:28:54;;;;;;;11.35;8.20;;;;;;;;;;4926001;28;20058;-77
2022/12/09 01:31:22;;;;;;;13.63;9.65;;;;;;;;;;4953884;29;20054;-76
2022/12/09 01:33:50;;;;;;;11.85;8.52;;;;;;;;;;4953569;28;20051;-77
2022/12/09 01:36:25;;;;;;;12.15;8.38;;;;;;;;;;4955948;28;20104;-76
2022/12/09 01:38:53;;;;;;;12.52;9.32;;;;;;;;;;4973311;28;20043;-77
2022/12/09 01:41:21;;;;;;;12.95;9.15;;;;;;;;;;4956180;28;20510;-76
2022/12/09 01:44:07;;;;;;;13.88;9.30;;;;;;;;;;4973475;28;20118;-78
2022/12/09 01:46:35;;;;;;;11.65;8.48;;;;;;;;;;4957024;28;20054;-76
2022/12/09 01:49:03;;;;;;;11.43;7.38;;;;;;;;;;4972269;28;20574;-76
2022/12/09 01:51:31;;;;;;;12.40;9.20;;;;;;;;;;4955971;28;20046;-75
2022/12/09 01:53:59;;;;;;;9.95;7.93;;;;;;;;;;4955181;28;20042;-76
2022/12/09 01:56:27;;;;;;;11.93;9.32;;;;;;;;;;4951360;28;20179;-76
2022/12/09 01:58:58;;;;;;;10.90;8.10;;;;;;;;;;4954627;28;20034;-77
2022/12/09 02:01:25;;;;;;;14.02;8.75;;;;;;;;;;4968095;28;20047;-76
2022/12/09 02:03:53;;;;;;;12.95;9.32;;;;;;;;;;4950515;28;20043;-76
2022/12/09 02:06:21;;;;;;;10.35;8.75;;;;;;;;;;4951984;28;20422;-75
2022/12/09 02:08:49;;;;;;;11.43;8.23;;;;;;;;;;4952341;28;20031;-78
2022/12/09 02:11:19;;;;;;;11.52;8.27;;;;;;;;;;4946396;28;20043;-77
2022/12/09 02:13:56;;;;;;;13.50;9.93;;;;;;;;;;4951515;28;20591;-77
2022/12/09 02:16:25;;;;;;;17.42;10.02;;;;;;;;;;4996421;23;20054;-72
2022/12/09 02:19:11;;;;;;;14.60;9.80;;;;;;;;;;5000469;28;20050;-72
2022/12/09 02:21:48;;;;;;;15.85;9.30;;;;;;;;;;5005237;28;20038;-72
2022/12/09 02:24:20;;;;;;;16.88;7.65;;;;;;;;;;5006372;28;20490;-72
2022/12/09 02:26:58;;;;;;;14.50;9.10;;;;;;;;;;5024094;28;20041;-72
2022/12/09 02:29:32;;;;;;;11.18;8.65;;;;;;;;;;4987189;28;20050;-73
2022/12/09 02:32:00;;;;;;;11.15;8.20;;;;;;;;;;5002152;28;20054;-72
2022/12/09 02:34:29;;;;;;;11.95;9.00;;;;;;;;;;5013526;28;20049;-72
2022/12/09 02:37:12;;;;;;;12.75;8.77;;;;;;;;;;5016596;28;20256;-71
2022/12/09 02:39:47;;;;;;;11.23;7.18;;;;;;;;;;5019775;28;20049;-71
2022/12/09 02:42:18;;;;;;;11.60;8.65;;;;;;;;;;5014366;28;20127;-72
2022/12/09 02:44:48;;;;;;;12.02;8.77;;;;;;;;;;5021389;28;20132;-72
2022/12/09 02:47:24;;;;;;;11.50;7.85;;;;;;;;;;5016647;28;20065;-73
2022/12/09 02:49:54;;;;;;;13.00;8.65;;;;;;;;;;5019937;28;20120;-72
2022/12/09 02:52:22;;;;;;;12.77;8.95;;;;;;;;;;5019120;28;20442;-72
2022/12/09 02:54:51;;;;;;;11.93;8.32;;;;;;;;;;5014043;28;20049;-72
2022/12/09 02:57:21;;;;;;;10.02;7.80;;;;;;;;;;5018315;28;20045;-74
2022/12/09 02:59:49;;;;;;;13.85;9.15;;;;;;;;;;5011573;28;20038;-72
2022/12/09 03:02:31;;;;;;;16.50;9.30;;;;;;;;;;5007929;28;20050;-72
2022/12/09 03:05:09;;;;;;;12.15;7.95;;;;;;;;;;5007487;28;20046;-74
2022/12/09 03:07:36;;;;;;;15.25;9.73;;;;;;;;;;5021258;28;20568;-73
2022/12/09 03:10:09;;;;;;;11.02;7.50;;;;;;;;;;5018011;28;20203;-72
2022/12/09 03:12:38;;;;;;;13.32;9.80;;;;;;;;;;5015136;28;20038;-72
2022/12/09 03:15:07;;;;;;;13.02;8.98;;;;;;;;;;5024433;28;20045;-72
2022/12/09 03:17:36;;;;;;;12.88;9.23;;;;;;;;;;5020562;28;20332;-72
2022/12/09 03:20:11;;;;;;;14.85;8.57;;;;;;;;;;5026704;28;20037;-72
2022/12/09 03:22:40;;;;;;;17.10;10.68;;;;;;;;;;5027161;28;20045;-72
2022/12/09 03:25:15;;;;;;;19.90;10.80;;;;;;;;;;5026417;28;20095;-72
2022/12/09 03:27:51;;;;;;;12.60;9.40;;;;;;;;;;5025515;28;20053;-72
2022/12/09 03:30:19;;;;;;;10.10;7.35;;;;;;;;;;5001351;28;20149;-72
2022/12/09 03:32:47;;;;;;;10.52;7.75;;;;;;;;;;5037767;28;20537;-72
2022/12/09 03:35:20;;;;;;;12.55;8.93;;;;;;;;;;5011566;28;20042;-72
2022/12/09 03:37:48;;;;;;;12.85;7.90;;;;;;;;;;5013637;28;20132;-72
2022/12/09 03:40:17;;;;;;;11.15;8.18;;;;;;;;;;5027533;28;20041;-73
2022/12/09 03:43:14;;;;;;;9.63;6.43;;;;;;;;;;5026640;28;20370;-72
2022/12/09 03:45:42;;;;;;;9.63;7.07;;;;;;;;;;5007487;28;20045;-73
2022/12/09 03:48:10;;;;;;;20.92;12.35;;;;;;;;;;5022919;28;20049;-72
2022/12/09 03:50:46;;;;;;;12.48;9.32;;;;;;;;;;5024633;28;20506;-74
2022/12/09 03:53:15;;;;;;;11.20;8.23;;;;;;;;;;5027387;28;21840;-72
2022/12/09 03:55:47;;;;;;;12.25;9.18;;;;;;;;;;5027150;28;20073;-72
2022/12/09 03:58:15;;;;;;;11.07;7.30;;;;;;;;;;5025720;28;20041;-73
2022/12/09 04:00:43;;;;;;;13.82;8.60;;;;;;;;;;5027041;28;20041;-72
2022/12/09 04:03:12;;;;;;;12.02;7.78;;;;;;;;;;5026849;28;20128;-73
2022/12/09 04:05:41;;;;;;;13.82;9.63;;;;;;;;;;5020235;28;20554;-72
2022/12/09 04:08:10;;;;;;;14.63;9.52;;;;;;;;;;5024118;28;20048;-73
2022/12/09 04:10:37;;;;;;;10.23;8.38;;;;;;;;;;5025086;28;20544;-74
2022/12/09 04:13:05;;;;;;;10.98;8.35;;;;;;;;;;5022542;28;20564;-73
2022/12/09 04:15:33;;;;;;;10.48;8.02;;;;;;;;;;5019566;28;20057;-73
2022/12/09 04:18:00;;;;;;;12.65;8.50;;;;;;;;;;5016626;28;20052;-72
2022/12/09 04:20:27;;;;;;;11.68;9.13;;;;;;;;;;5020236;28;20432;-72
2022/12/09 04:22:55;;;;;;;10.90;7.93;;;;;;;;;;5021122;28;20048;-73
2022/12/09 04:25:22;;;;;;;13.43;9.40;;;;;;;;;;5022209;28;20041;-73
2022/12/09 04:27:50;;;;;;;14.15;8.63;;;;;;;;;;5025203;28;20196;-73
2022/12/09 04:30:18;;;;;;;11.32;8.23;;;;;;;;;;5022703;28;20056;-73
2022/12/09 04:32:45;;;;;;;11.88;8.32;;;;;;;;;;5025534;28;20047;-73
2022/12/09 04:35:13;;;;;;;14.18;8.77;;;;;;;;;;5029902;28;20064;-72
2022/12/09 04:37:41;;;;;;;11.70;8.35;;;;;;;;;;5027291;28;20098;-73
2022/12/09 04:40:08;;;;;;;12.73;8.45;;;;;;;;;;5029899;28;20045;-73
2022/12/09 04:42:36;;;;;;;12.65;8.63;;;;;;;;;;5021007;28;20044;-73
2022/12/09 04:45:04;;;;;;;12.70;9.00;;;;;;;;;;5030199;28;20042;-73
2022/12/09 04:47:32;;;;;;;11.40;9.27;;;;;;;;;;5030457;28;20046;-74
2022/12/09 04:50:00;;;;;;;11.57;9.00;;;;;;;;;;5030638;28;20513;-73
2022/12/09 04:52:28;;;;;;;12.75;8.93;;;;;;;;;;5031250;28;20045;-73
2022/12/09 04:54:56;;;;;;;10.32;7.95;;;;;;;;;;5025023;28;20041;-74
2022/12/09 04:57:31;;;;;;;11.18;8.70;;;;;;;;;;5013936;28;20396;-73
2022/12/09 04:59:58;;;;;;;13.80;9.38;;;;;;;;;;5016057;28;20072;-73
2022/12/09 05:02:26;;;;;;;13.07;8.60;;;;;;;;;;5009794;28;20441;-73
2022/12/09 05:04:53;;;;;;;12.82;8.27;;;;;;;;;;5009700;28;20042;-73
2022/12/09 05:07:22;;;;;;;12.77;8.63;;;;;;;;;;5009183;28;20076;-72
2022/12/09 05:09:50;;;;;;;10.70;7.68;;;;;;;;;;5007139;28;20104;-73
2022/12/09 05:12:17;;;;;;;8.60;6.28;;;;;;;;;;5027409;28;20046;-72
2022/12/09 05:14:45;;;;;;;9.95;6.80;;;;;;;;;;5018319;28;20077;-73
2022/12/09 05:17:12;;;;;;;10.02;7.22;;;;;;;;;;5027261;28;20053;-73
2022/12/09 05:19:40;;;;;;;15.02;9.55;;;;;;;;;;5030790;28;20095;-73
2022/12/09 05:22:07;;;;;;;16.55;9.13;;;;;;;;;;5021486;28;20266;-74
2022/12/09 05:24:35;;;;;;;14.18;9.40;;;;;;;;;;5027237;28;20482;-74
2022/12/09 05:27:02;;;;;;;12.07;8.85;;;;;;;;;;5021254;28;20409;-73
2022/12/09 05:29:30;;;;;;;14.05;9.68;;;;;;;;;;5011312;28;20492;-73
2022/12/09 05:31:57;;;;;;;10.27;8.10;;;;;;;;;;5016601;28;20371;-73
2022/12/09 05:34:25;;;;;;;13.02;8.57;;;;;;;;;;5012360;28;20049;-73
2022/12/09 05:36:53;;;;;;;11.27;7.53;;;;;;;;;;5028114;28;20572;-73
2022/12/09 05:39:20;;;;;;;12.65;8.70;;;;;;;;;;5011653;28;20038;-73
2022/12/09 05:41:48;;;;;;;14.38;9.63;;;;;;;;;;5027772;28;20043;-74
2022/12/09 05:44:15;;;;;;;10.00;7.93;;;;;;;;;;5028134;28;20554;-73
2022/12/09 05:46:43;;;;;;;12.77;8.77;;;;;;;;;;5029661;28;20072;-74
2022/12/09 05:49:11;;;;;;;15.57;9.82;;;;;;;;;;5019933;28;20438;-73
2022/12/09 05:51:39;;;;;;;14.82;10.57;;;;;;;;;;5023468;28;20045;-73
2022/12/09 05:54:06;;;;;;;14.90;10.93;;;;;;;;;;5024730;28;20441;-72
2022/12/09 05:56:34;;;;;;;12.65;9.73;;;;;;;;;;5030353;28;20136;-73
2022/12/09 05:59:02;;;;;;;12.40;8.50;;;;;;;;;;5029764;28;20061;-72
2022/12/09 06:01:29;;;;;;;12.07;7.90;;;;;;;;;;5028508;28;20116;-73
2022/12/09 06:03:57;;;;;;;12.38;9.15;;;;;;;;;;5019916;28;20473;-72
2022/12/09 06:06:26;;;;;;;12.57;9.30;;;;;;;;;;5026772;28;20041;-73
2022/12/09 06:08:56;;;;;;;13.40;9.55;;;;;;;;;;5030144;28;20084;-72
2022/12/09 06:11:24;;;;;;;11.13;8.52;;;;;;;;;;5045208;28;20053;-72
2022/12/09 06:13:52;;;;;;;14.30;9.57;;;;;;;;;;5047377;28;20416;-73
2022/12/09 06:16:21;;;;;;;16.67;10.68;;;;;;;;;;5029351;28;20101;-73
2022/12/09 06:18:49;;;;;;;17.27;13.40;;;;;;;;;;5027097;28;20060;-73
2022/12/09 06:21:18;;;;;;;14.75;7.80;;;;;;;;;;5023639;28;20516;-73
2022/12/09 06:23:46;;;;;;;14.18;9.90;;;;;;;;;;5023641;28;20042;-73
2022/12/09 06:26:15;;;;;;;15.82;10.57;;;;;;;;;;5018395;28;20053;-73
2022/12/09 06:28:43;;;;;;;18.67;10.68;;;;;;;;;;5019511;28;20042;-72
2022/12/09 06:31:11;;;;;;;15.23;10.13;;;;;;;;;;5001216;28;20058;-72
2022/12/09 06:33:39;;;;;;;14.43;9.30;;;;;;;;;;5011779;28;20099;-73
2022/12/09 06:36:26;;;;;;;17.48;10.48;;;;;;;;;;5017956;28;20445;-72
2022/12/09 06:38:55;;;;;;;13.38;9.10;;;;;;;;;;5007232;28;20038;-72
2022/12/09 06:41:23;;;;;;;15.93;9.38;;;;;;;;;;5014267;28;20112;-73
2022/12/09 06:43:50;;;;;;;12.82;7.85;;;;;;;;;;5011100;28;20042;-73
2022/12/09 06:46:21;;;;;;;17.25;10.27;;;;;;;;;;5012893;28;20294;-73
2022/12/09 06:48:50;;;;;;;16.50;10.43;;;;;;;;;;5007596;28;20497;-73
2022/12/09 06:51:18;;;;;;;16.45;9.48;;;;;;;;;;5013685;28;20100;-73
2022/12/09 06:53:46;;;;;;;15.85;9.93;;;;;;;;;;5015487;28;20482;-73
2022/12/09 06:56:14;;;;;;;13.00;9.52;;;;;;;;;;5027840;28;20053;-74
2022/12/09 06:58:42;;;;;;;11.90;8.70;;;;;;;;;;5011767;28;20157;-73
2022/12/09 07:01:15;;;;;;;10.77;7.20;;;;;;;;;;5012435;28;20033;-72
2022/12/09 07:03:44;;;;;;;14.10;8.93;;;;;;;;;;5008002;28;20453;-72
2022/12/09 07:06:18;;;;;;;15.02;8.70;;;;;;;;;;5008427;28;20133;-73
2022/12/09 07:08:46;;;;;;;11.15;8.60;;;;;;;;;;5010092;28;20044;-72
2022/12/09 07:11:14;;;;;;;11.77;8.57;;;;;;;;;;5023205;28;20121;-73
2022/12/09 07:13:41;;;;;;;10.10;7.15;;;;;;;;;;5027012;28;20596;-72
2022/12/09 07:16:09;;;;;;;13.13;9.02;;;;;;;;;;5027228;28;20045;-72
2022/12/09 07:18:37;;;;;;;28.23;20.90;;;;;;;;;;5026953;28;20045;-74
2022/12/09 07:21:06;;;;;;;15.20;9.55;;;;;;;;;;5028298;28;20041;-73
2022/12/09 07:23:33;;;;;;;17.33;10.75;;;;;;;;;;5027311;28;20065;-73
2022/12/09 07:26:01;;;;;;;12.20;8.38;;;;;;;;;;5000954;28;20037;-73
2022/12/09 07:28:29;;;;;;;13.60;10.43;;;;;;;;;;5027582;28;20052;-73
2022/12/09 07:30:56;;;;;;;16.58;8.98;;;;;;;;;;5020807;28;20116;-72
2022/12/09 07:33:24;;;;;;;14.02;8.70;;;;;;;;;;5005973;28;20604;-73
2022/12/09 07:35:55;;;;;;;16.40;9.95;;;;;;;;;;5021587;28;20144;-74
2022/12/09 07:38:23;;;;;;;12.52;8.13;;;;;;;;;;5027755;28;20044;-73
2022/12/09 07:40:51;;;;;;;14.07;9.13;;;;;;;;;;5028205;28;20103;-72
2022/12/09 07:43:19;;;;;;;11.40;8.52;;;;;;;;;;5027384;28;20041;-72
2022/12/09 07:45:48;;;;;;;11.05;7.55;;;;;;;;;;5027030;28;20096;-72
2022/12/09 07:48:15;;;;;;;11.77;8.90;;;;;;;;;;5003456;28;20052;-73
2022/12/09 07:50:43;;;;;;;13.50;9.25;;;;;;;;;;5028876;28;20056;-72
2022/12/09 07:53:11;;;;;;;16.77;10.63;;;;;;;;;;5023350;28;20084;-72
2022/12/09 07:55:38;;;;;;;14.38;9.45;;;;;;;;;;5025636;28;20144;-73
2022/12/09 07:58:06;;;;;;;14.75;9.73;;;;;;;;;;5012730;28;20583;-73
2022/12/09 08:00:33;;;;;;;12.30;9.30;;;;;;;;;;5024073;28;20503;-73
2022/12/09 08:03:00;;;;;;;17.95;15.45;;;;;;;;;;5008358;28;20049;-73
2022/12/09 08:05:28;;;;;;;12.00;8.52;;;;;;;;;;5021873;28;20045;-72
2022/12/09 08:07:56;;;;;;;13.35;9.65;;;;;;;;;;5022913;28;20389;-73
2022/12/09 08:10:24;;;;;;;16.00;10.60;;;;;;;;;;5009750;28;20067;-73
2022/12/09 08:12:52;;;;;;;14.65;9.65;;;;;;;;;;5019126;28;20108;-73
2022/12/09 08:15:20;;;;;;;17.45;12.98;;;;;;;;;;5026396;28;20133;-73
2022/12/09 08:17:48;;;;;;;15.27;10.20;;;;;;;;;;5027694;28;20092;-73
2022/12/09 08:20:16;;;;;;;18.52;11.68;;;;;;;;;;5027066;28;20103;-73
2022/12/09 08:22:48;;;;;;;;;;;;;;;;;;5021979;28;20038;-72
2022/12/09 08:25:16;;;;;;;8.82;7.07;;;;;;;;;;5025369;28;19943;-73
2022/12/09 08:27:44;;;;;;;15.45;9.90;;;;;;;;;;5024307;28;20088;-73
2022/12/09 08:30:12;;;;;;;15.45;10.68;;;;;;;;;;5015269;28;20049;-73
2022/12/09 08:32:40;;;;;;;16.23;11.20;;;;;;;;;;5016819;28;20037;-73
2022/12/09 08:35:13;;;;;;;15.65;11.25;;;;;;;;;;5022660;28;20056;-73
2022/12/09 08:37:41;;;;;;;17.27;10.48;;;;;;;;;;5019022;28;20072;-72
2022/12/09 08:40:10;;;;;;;13.40;10.38;;;;;;;;;;5020997;28;20052;-72
2022/12/09 08:42:38;;;;;;;13.07;9.98;;;;;;;;;;5019323;28;20049;-71
2022/12/09 08:45:05;;;;;;;13.10;9.50;;;;;;;;;;5025862;28;20566;-72
2022/12/09 08:47:33;;;;;;;13.15;9.38;;;;;;;;;;5026829;28;20436;-72
2022/12/09 08:50:01;;;;;;;17.70;10.63;;;;;;;;;;5022448;28;20037;-71
2022/12/09 08:52:29;;;;;;;16.70;11.35;;;;;;;;;;5011368;28;20041;-71
2022/12/09 08:55:05;;;;;;;12.98;9.70;;;;;;;;;;5006654;28;20181;-71
2022/12/09 08:57:32;;;;;;;15.60;10.40;;;;;;;;;;5018896;28;20497;-72
2022/12/09 09:00:00;;;;;;;14.07;9.10;;;;;;;;;;5021051;28;20065;-72
2022/12/09 09:02:27;;;;;;;14.95;9.60;;;;;;;;;;5013116;28;20041;-72
2022/12/09 09:04:56;;;;;;;11.57;8.30;;;;;;;;;;5012857;28;20351;-72
2022/12/09 09:07:24;;;;;;;13.00;9.40;;;;;;;;;;5002177;28;20054;-72
2022/12/09 09:09:51;;;;;;;14.18;9.40;;;;;;;;;;5021874;28;20164;-72
2022/12/09 09:12:19;;;;;;;11.68;8.98;;;;;;;;;;5018119;28;20164;-73
2022/12/09 09:14:47;;;;;;;11.65;9.10;;;;;;;;;;5016034;28;20049;-73
2022/12/09 09:17:15;;;;;;;12.20;9.43;;;;;;;;;;5000386;28;20084;-72
2022/12/09 09:19:43;;;;;;;13.32;9.05;;;;;;;;;;5023510;28;20041;-73
2022/12/09 09:22:11;;;;;;;11.02;7.72;;;;;;;;;;5014397;28;20067;-72
2022/12/09 09:24:38;;;;;;;18.05;12.38;;;;;;;;;;5019285;28;20087;-73
2022/12/09 09:27:07;;;;;;;16.13;10.85;;;;;;;;;;5029458;28;20091;-72
2022/12/09 09:29:40;;;;;;;13.90;9.65;;;;;;;;;;5016842;28;20068;-73
2022/12/09 09:32:12;;;;;;;10.20;8.23;;;;;;;;;;5009163;28;20502;-74
2022/12/09 09:34:47;;;;;;;13.30;9.95;;;;;;;;;;4999072;28;20142;-72
2022/12/09 09:37:20;;;;;;;11.85;9.25;;;;;;;;;;4989857;28;20100;-72
2022/12/09 09:39:48;;;;;;;10.25;8.85;;;;;;;;;;5027182;28;20140;-72
2022/12/09 09:42:18;;;;;;;13.00;8.60;;;;;;;;;;5024459;28;20065;-72
2022/12/09 09:44:47;;;;;;;11.05;8.02;;;;;;;;;;5029375;28;20048;-72
2022/12/09 09:47:27;;;;;;;14.45;9.75;;;;;;;;;;5029298;28;20144;-72
2022/12/09 09:50:07;;;;;;;11.80;9.25;;;;;;;;;;5020096;28;20053;-72
2022/12/09 09:52:38;;;;;;;12.75;9.23;;;;;;;;;;4993628;28;20493;-73
2022/12/09 09:55:13;;;;;;;13.88;9.48;;;;;;;;;;5009643;28;20046;-73
2022/12/09 09:57:49;;;;;;;11.32;9.68;;;;;;;;;;5009426;28;20046;-72
2022/12/09 10:00:21;;;;;;;18.15;10.90;;;;;;;;;;5016087;28;20073;-72
2022/12/09 10:03:09;;;;;;;12.13;10.23;;;;;;;;;;5019478;28;20677;-72
2022/12/09 10:05:43;;;;;;;10.13;8.50;;;;;;;;;;5013407;28;20034;-72
2022/12/09 10:08:11;;;;;;;14.07;9.02;;;;;;;;;;5021652;28;20194;-72
2022/12/09 10:10:45;;;;;;;11.25;8.50;;;;;;;;;;5019463;28;20071;-72
2022/12/09 10:13:30;;;;;;;11.82;8.68;;;;;;;;;;5027122;28;20076;-72
2022/12/09 10:16:07;;;;;;;15.40;9.60;;;;;;;;;;5024691;28;20050;-70
2022/12/09 10:18:38;;;;;;;12.82;8.85;;;;;;;;;;5009832;28;20052;-71
2022/12/09 10:21:16;;;;;;;12.30;8.98;;;;;;;;;;5019356;28;20433;-71
2022/12/09 10:23:45;;;;;;;12.60;9.05;;;;;;;;;;5020636;28;20039;-71
2022/12/09 10:26:24;;;;;;;12.25;9.48;;;;;;;;;;5013352;28;20078;-71
2022/12/09 10:29:10;;;;;;;13.27;9.32;;;;;;;;;;5018454;28;20042;-72
2022/12/09 10:31:37;;;;;;;11.60;9.13;;;;;;;;;;5011558;28;20045;-72
2022/12/09 10:34:05;;;;;;;16.02;13.55;;;;;;;;;;5019226;28;20128;-72
2022/12/09 10:36:34;;;;;;;17.40;15.55;;;;;;;;;;5012035;28;20164;-71
2022/12/09 10:39:04;;;;;;;10.43;8.57;;;;;;;;;;5017498;28;20068;-71
2022/12/09 10:44:33;;;;;;;11.80;8.43;;;;;;;;;;5027874;28;20122;-71
2022/12/09 10:47:06;;;;;;;14.20;9.98;;;;;;;;;;5018815;28;20608;-72
2022/12/09 10:49:35;;;;;;;13.35;9.57;;;;;;;;;;5029056;28;20095;-72
2022/12/09 10:52:03;;;;;;;13.73;9.80;;;;;;;;;;5024970;28;20045;-72
2022/12/09 10:54:31;;;;;;;14.15;9.88;;;;;;;;;;5016755;28;20315;-72
2022/12/09 10:57:01;;;;;;;14.20;9.45;;;;;;;;;;5028221;28;20041;-72
2022/12/09 10:59:30;;;;;;;14.25;10.38;;;;;;;;;;5017729;28;20050;-71
2022/12/09 11:01:58;;;;;;;12.55;10.18;;;;;;;;;;5017691;28;20030;-71
2022/12/09 11:04:36;;;;;;;13.45;10.63;;;;;;;;;;5010819;28;20117;-72
2022/12/09 11:07:13;;;;;;;14.82;13.20;;;;;;;;;;5007916;28;20046;-72
2022/12/09 11:09:43;;;;;;;13.85;10.07;;;;;;;;;;4990002;28;20428;-71
2022/12/09 11:12:31;;;;;;;13.27;9.15;;;;;;;;;;5006026;28;20137;-72
2022/12/09 11:15:23;;;;;;;11.73;9.05;;;;;;;;;;5005712;28;20038;-72
2022/12/09 11:18:03;;;;;;;18.35;10.25;;;;;;;;;;5016446;28;20046;-71
2022/12/09 11:20:32;;;;;;;15.45;10.27;;;;;;;;;;5019339;28;20065;-71
2022/12/09 11:23:12;;;;;;;12.38;8.75;;;;;;;;;;5016230;28;20139;-71
2022/12/09 11:25:51;;;;;;;10.63;8.80;;;;;;;;;;5025418;28;20115;-72
2022/12/09 11:28:29;;;;;;;15.02;9.93;;;;;;;;;;5010941;28;20038;-71
2022/12/09 11:31:01;;;;;;;14.95;9.43;;;;;;;;;;5008899;28;20061;-71
2022/12/09 11:33:51;;;;;;;9.75;8.45;;;;;;;;;;5016420;28;20049;-71
2022/12/09 11:36:27;;;;;;;13.73;9.85;;;;;;;;;;5010185;28;20038;-71
2022/12/09 11:39:19;;;;;;;17.95;9.63;;;;;;;;;;5015192;28;20053;-72
2022/12/09 11:44:56;;;;;;;11.30;9.30;;;;;;;;;;5014886;28;20038;-71
2022/12/09 11:47:26;;;;;;;10.63;8.90;;;;;;;;;;5012817;28;20137;-71
2022/12/09 11:50:02;;;;;;;11.75;8.10;;;;;;;;;;5005012;28;20063;-71
2022/12/09 11:52:30;;;;;;;15.10;9.20;;;;;;;;;;5012397;28;20101;-71
2022/12/09 11:54:57;;;;;;;11.68;8.30;;;;;;;;;;5019840;28;20096;-71
2022/12/09 11:57:32;;;;;;;12.77;8.95;;;;;;;;;;5025026;28;20050;-71
2022/12/09 12:00:02;;;;;;;12.70;10.27;;;;;;;;;;5024128;28;20049;-71
2022/12/09 12:02:40;;;;;;;17.27;10.63;;;;;;;;;;5022524;28;20571;-70
2022/12/09 12:05:20;;;;;;;14.13;9.27;;;;;;;;;;5025600;28;20049;-71
2022/12/09 12:08:00;;;;;;;13.77;10.20;;;;;;;;;;5025909;28;20048;-71
2022/12/09 12:10:34;;;;;;;14.90;10.88;;;;;;;;;;5025203;28;20851;-70
2022/12/09 12:13:05;;;;;;;13.98;9.32;;;;;;;;;;5024732;28;20077;-71
2022/12/09 12:15:55;;;;;;;18.20;10.77;;;;;;;;;;5020988;28;20555;-71
2022/12/09 12:18:23;;;;;;;14.20;10.35;;;;;;;;;;5003289;28;20049;-71
2022/12/09 12:21:02;;;;;;;14.77;10.48;;;;;;;;;;5023510;28;20124;-70
2022/12/09 12:23:36;;;;;;;14.65;10.52;;;;;;;;;;5004925;28;20042;-71
2022/12/09 12:26:07;;;;;;;11.18;9.88;;;;;;;;;;5013278;28;20075;-71
2022/12/09 12:28:37;;;;;;;14.57;10.23;;;;;;;;;;5026096;28;20793;-71
2022/12/09 12:31:21;;;;;;;12.95;9.85;;;;;;;;;;5024967;28;20324;-71
2022/12/09 12:33:48;;;;;;;16.90;14.15;;;;;;;;;;5025199;28;20155;-71
2022/12/09 12:36:55;;;;;;;13.38;10.00;;;;;;;;;;5026468;28;20049;-71
2022/12/09 12:39:42;;;;;;;13.25;9.48;;;;;;;;;;5026067;28;20095;-71
2022/12/09 12:42:28;;;;;;;10.70;9.18;;;;;;;;;;5025127;28;20140;-71
2022/12/09 12:47:53;;;;;;;13.02;9.68;;;;;;;;;;5018939;28;20052;-71
2022/12/09 12:50:33;;;;;;;14.63;9.45;;;;;;;;;;5024826;28;20046;-71
2022/12/09 12:53:00;;;;;;;14.80;10.88;;;;;;;;;;5014854;28;20042;-71
2022/12/09 12:55:36;;;;;;;12.07;10.18;;;;;;;;;;5015604;28;20452;-70
2022/12/09 12:58:04;;;;;;;14.48;9.68;;;;;;;;;;5021077;28;20914;-71
2022/12/09 13:00:36;;;;;;;13.43;9.60;;;;;;;;;;5010602;28;20124;-73
2022/12/09 13:03:22;;;;;;;13.68;9.80;;;;;;;;;;5018755;28;20057;-72
2022/12/09 13:05:51;;;;;;;14.10;10.13;;;;;;;;;;5015702;28;20050;-71
2022/12/09 13:08:23;;;;;;;14.15;9.52;;;;;;;;;;5021946;28;20050;-72
2022/12/09 13:10:55;;;;;;;13.73;9.88;;;;;;;;;;5026220;28;20161;-72
2022/12/09 13:13:23;;;;;;;14.07;10.05;;;;;;;;;;5027190;28;20098;-71
2022/12/09 13:15:55;;;;;;;12.90;9.65;;;;;;;;;;5016490;28;20486;-71
2022/12/09 13:18:26;;;;;;;12.55;9.13;;;;;;;;;;5009395;28;20081;-72
2022/12/09 13:20:55;;;;;;;13.00;9.00;;;;;;;;;;5007188;28;20120;-73
2022/12/09 13:23:22;;;;;;;13.10;9.52;;;;;;;;;;5008570;28;20037;-71
2022/12/09 13:26:09;;;;;;;18.67;10.35;;;;;;;;;;5009668;28;20041;-71
2022/12/09 13:28:48;;;;;;;18.23;9.38;;;;;;;;;;5009839;28;20107;-71
2022/12/09 13:31:16;;;;;;;11.48;9.35;;;;;;;;;;5014768;28;20056;-71
2022/12/09 13:33:50;;;;;;;11.32;9.50;;;;;;;;;;5024394;28;20099;-71
2022/12/09 13:36:34;;;;;;;12.93;9.25;;;;;;;;;;5028538;28;20531;-70
2022/12/09 13:39:03;;;;;;;12.40;8.60;;;;;;;;;;5028431;28;20053;-71
2022/12/09 13:42:51;;;;;;;15.40;8.60;;;;;;;;;;5029347;28;20473;-70
2022/12/09 13:44:18;;;;;;;13.48;8.82;;;;;;;;;;5026250;28;20077;-70
2022/12/09 13:46:45;;;;;;;13.15;9.27;;;;;;;;;;5015567;28;20033;-69
2022/12/09 13:49:24;;;;;;;12.88;9.25;;;;;;;;;;5014322;28;20052;-70
2022/12/09 13:51:52;;;;;;;9.95;8.18;;;;;;;;;;5014226;28;20038;-70
2022/12/09 13:54:21;;;;;;;12.98;9.07;;;;;;;;;;5025350;28;20042;-70
2022/12/09 13:57:11;;;;;;;11.68;8.25;;;;;;;;;;5028702;28;20037;-70
2022/12/09 13:59:43;;;;;;;12.30;9.32;;;;;;;;;;5021240;28;20092;-70
2022/12/09 14:02:28;;;;;;;15.30;9.52;;;;;;;;;;5018123;28;20038;-69
2022/12/09 14:05:14;;;;;;;14.77;10.57;;;;;;;;;;5023122;28;20048;-70
2022/12/09 14:07:45;;;;;;;13.55;9.73;;;;;;;;;;5028715;28;20046;-70
2022/12/09 14:10:31;;;;;;;11.63;8.80;;;;;;;;;;5027244;28;20058;-71
2022/12/09 14:12:59;;;;;;;11.52;8.30;;;;;;;;;;5019200;28;20060;-71
2022/12/09 14:15:27;;;;;;;10.00;8.63;;;;;;;;;;5018166;28;20104;-70
2022/12/09 14:17:58;;;;;;;12.82;7.97;;;;;;;;;;5024820;28;20053;-71
2022/12/09 14:20:30;;;;;;;11.90;8.93;;;;;;;;;;5023255;28;20041;-71
2022/12/09 14:22:58;;;;;;;;;;;;;;;;;;5023222;28;20047;-69
2022/12/09 14:25:26;;;;;;;11.05;7.78;;;;;;;;;;5022127;28;20615;-70
2022/12/09 14:28:23;;;;;;;12.00;8.40;;;;;;;;;;5010150;28;20038;-71
2022/12/09 14:30:59;;;;;;;14.18;8.88;;;;;;;;;;5019145;28;20061;-70
2022/12/09 14:33:38;;;;;;;11.77;8.80;;;;;;;;;;5027324;28;20099;-71
2022/12/09 14:36:14;;;;;;;12.88;9.85;;;;;;;;;;5025520;28;20049;-71
2022/12/09 14:38:48;;;;;;;14.15;10.32;;;;;;;;;;5026582;28;20049;-72
2022/12/09 14:41:38;;;;;;;17.55;10.85;;;;;;;;;;5027261;28;20512;-71
2022/12/09 14:44:24;;;;;;;19.30;11.10;;;;;;;;;;5008415;28;20045;-72
2022/12/09 14:47:08;;;;;;;15.48;9.80;;;;;;;;;;5026355;28;20038;-71
2022/12/09 14:50:03;;;;;;;11.43;8.55;;;;;;;;;;5023108;28;20041;-71
2022/12/09 14:52:32;;;;;;;13.57;10.15;;;;;;;;;;5025235;28;20064;-70
2022/12/09 14:55:03;;;;;;;15.07;10.65;;;;;;;;;;5026324;28;20048;-70
2022/12/09 14:57:36;;;;;;;28.30;18.87;;;;;;;;;;5023959;28;20057;-70
2022/12/09 15:00:05;;;;;;;15.95;12.82;;;;;;;;;;5025627;28;20304;-70